Heber City, UT

8:23 AM MST en Diciembre 18, 2014 (GMT -0700)
Heber | Change Station
CLOSE
Current Station
Aeropuerto
Location: Heber,
Altura: 5636 ft
Estaciones meteorológicas cercanas

Alt 5636 ft 40.48 °N, 111.43 °W | Updated 8 minutes ago

Nublado
Nublado
28 ° F
Sensación térmica 28 ° F
N
0
Viento Variable Viento desde Norte

Hoy
Alta -- | Baja -- ° F
--% Posibilidad de precipitaciones
Ayer
Alta -- | Baja -- ° F
Precip. -- pul
7:43 AM 5:00 PM
Creciente menguante, 14% visible
Presión 30.11 pul
Visibilidad 10.0 Millas
Nubes Nubes dispersas 3300 ft
Nublado 7500 ft
Punto de rocío 27 ° F
Humedad 93%
Precipitaciones 0.00 pul
Espesor de la nieve No disponible.
UV 0 de una escala de 12
Polen .10 de una escala de 12
Calidad del aire No disponible.
Flu Activity No disponible.
METAR K36U 181515Z AUTO 00000KT 10SM SCT033 OVC075 M02/M03 A3011 RMK AO2

More Conditions Fewer Conditions

Presión 30.11 pul
Visibilidad 10.0 Millas
Nubes Nubes dispersas 3300 ft
Nublado 7500 ft
Punto de rocío 27 ° F
Humedad 93%
Precipitaciones 0.00 pul
Espesor de la nieve No disponible.
UV 0 de una escala de 12
Polen .10 de una escala de 12
Calidad del aire No disponible.
Flu Activity No disponible.
METAR K36U 181515Z AUTO 00000KT 10SM SCT033 OVC075 M02/M03 A3011 RMK AO2

More Conditions Fewer Conditions

10-Day Weather Forecast

Almanac

Astronomía

Dec. 18, 2014 Salida Puesta
Hora real
Crepúsculo civil
Crepúsculo náutico
Crepúsculo astronómico
Luna
Horas de luz
Horas de luz
Tomorrow will be .
, % of the Moon is Illuminated

Extremos de hoy

Máximos del estado Bajos del estado

Community

WunderPhotos

Upload Photos

1,778,947 ¡fotos cargadas!

WunderBlogs® & News

Nearby

Calidad del aire

  Calidad del aire Índice AQ Contaminante
Not available.

Grosos de nieve

Estación Profundido Altura

Actividad de terremotos

Ciudad Distance Mag. Tiempo y dato
Magnitud mínima muestra es 2,5.

Temperaturas de aguas costeras

Lugar Temperatura

Estaciones meteorológicas cercanas